Pigeon Cove, Massachusetts
Current Conditions -  °F | °C
As of 10:53 AM on Friday 28 Nov 2014 (Local Time) from KBVY Reporting Station
Overcast Overcast  
Wind Chill: 20°   Ceiling: 1700
Heat Index: 29°   Visibility: 10mi
Dew Point: 23°   Wind: 9mph
Humidity: 78%   Direction: 330°NNW
Pressure: 30.06"   Gusts: NA
Location:  42.6548°N, 70.6236°W
Report Text: KBVY 281553Z 33008KT 10SM BKN017 OVC085 M02/M05 A3006 RMK AO2 SNB1459E09 SLP177 P0000 T10171050
Loading
Personal Weather Stations






























Interactive Weather Map New forecast layout! Learn more

10-Day Weather Forecast

Advertisements
Track Severe Weather on mobile